Time,TemperatureF,DewpointF,PressureIn,WindDirection,WindDirectionDegrees,WindSpeedMPH,WindSpeedGustMPH,Humidity,HourlyPrecipIn,Conditions,Clouds,dailyrainin,SoftwareType,DateUTC
2013-08-28 00:01:00,81.3,70.2,29.76,WSW,248,1.3,2.2,69,0.00,,---,0.00,VWS V14.00,2013-08-28 04:01:00,
2013-08-28 00:02:00,81.3,70.2,29.76,NW,315,1.6,2.5,69,0.00,,---,0.00,VWS V14.00,2013-08-28 04:02:00,
2013-08-28 00:07:00,81.3,70.2,29.76,West,270,2.0,2.0,69,0.00,,---,0.00,VWS V14.00,2013-08-28 04:07:00,
2013-08-28 00:12:00,81.3,70.2,29.76,SSW,202,1.3,3.1,69,0.00,,---,0.00,VWS V14.00,2013-08-28 04:12:00,
2013-08-28 00:17:00,81.3,70.2,29.76,West,270,2.7,3.4,69,0.00,,---,0.00,VWS V14.00,2013-08-28 04:17:00,
2013-08-28 00:22:00,81.3,70.2,29.76,South,180,3.4,3.4,69,0.00,,---,0.00,VWS V14.00,2013-08-28 04:22:00,
2013-08-28 00:27:00,81.3,70.2,29.76,West,270,4.0,4.0,69,0.00,,---,0.00,VWS V14.00,2013-08-28 04:27:00,
2013-08-28 00:32:00,81.3,70.2,29.74,SSW,202,1.6,1.6,69,0.00,,---,0.00,VWS V14.00,2013-08-28 04:32:00,
2013-08-28 00:37:00,80.6,70.3,29.74,West,270,1.1,1.1,71,0.00,,---,0.00,VWS V14.00,2013-08-28 04:37:00,
2013-08-28 00:42:00,79.5,70.5,29.74,WSW,248,0.0,0.0,74,0.00,,---,0.00,VWS V14.00,2013-08-28 04:42:00,
2013-08-28 00:47:00,78.8,70.6,29.74,WSW,248,0.9,0.9,76,0.00,,---,0.00,VWS V14.00,2013-08-28 04:47:00,
2013-08-28 00:52:00,78.4,70.6,29.74,SW,225,1.3,2.9,77,0.00,,---,0.00,VWS V14.00,2013-08-28 04:52:00,
2013-08-28 00:57:00,78.3,70.8,29.74,NW,315,3.4,3.8,78,0.00,,---,0.00,VWS V14.00,2013-08-28 04:57:00,
2013-08-28 01:02:00,78.1,70.7,29.74,SW,225,1.3,1.3,78,0.00,,---,0.00,VWS V14.00,2013-08-28 05:02:00,
2013-08-28 01:07:00,78.1,70.7,29.74,SSW,202,2.7,2.7,78,0.00,,---,0.00,VWS V14.00,2013-08-28 05:07:00,
2013-08-28 01:12:00,78.1,70.7,29.74,WNW,292,1.3,1.3,78,0.00,,---,0.00,VWS V14.00,2013-08-28 05:12:00,
2013-08-28 01:17:00,78.3,70.8,29.74,WSW,248,2.5,2.5,78,0.00,,---,0.00,VWS V14.00,2013-08-28 05:17:00,
2013-08-28 01:22:00,78.3,70.8,29.74,WSW,248,2.2,2.2,78,0.00,,---,0.00,VWS V14.00,2013-08-28 05:22:00,
2013-08-28 01:27:00,78.3,70.8,29.74,West,270,2.0,2.2,78,0.00,,---,0.00,VWS V14.00,2013-08-28 05:27:00,
2013-08-28 01:32:00,78.4,70.6,29.76,WSW,248,1.3,1.3,77,0.00,,---,0.00,VWS V14.00,2013-08-28 05:32:00,
2013-08-28 01:38:00,78.6,70.4,29.76,West,270,2.5,2.5,76,0.00,,---,0.00,VWS V14.00,2013-08-28 05:38:00,
2013-08-28 01:43:00,79.0,70.4,29.76,SSE,158,4.3,4.7,75,0.00,,---,0.00,VWS V14.00,2013-08-28 05:43:00,
2013-08-28 01:48:00,79.2,70.2,29.74,West,270,1.6,1.6,74,0.00,,---,0.00,VWS V14.00,2013-08-28 05:48:00,
2013-08-28 01:53:00,79.3,69.9,29.74,WSW,248,0.0,1.1,73,0.00,,---,0.00,VWS V14.00,2013-08-28 05:53:00,
2013-08-28 01:58:00,79.3,69.9,29.74,West,270,0.9,2.5,73,0.00,,---,0.00,VWS V14.00,2013-08-28 05:58:00,
2013-08-28 02:03:00,79.5,69.7,29.74,SW,225,1.6,2.7,72,0.00,,---,0.00,VWS V14.00,2013-08-28 06:03:00,
2013-08-28 02:08:00,79.3,69.5,29.74,NW,315,2.5,2.5,72,0.00,,---,0.00,VWS V14.00,2013-08-28 06:08:00,
2013-08-28 02:13:00,79.5,69.3,29.76,NNW,338,2.5,2.5,71,0.00,,---,0.00,VWS V14.00,2013-08-28 06:13:00,
2013-08-28 02:18:00,79.5,68.9,29.76,NNE,22,1.1,2.5,70,0.00,,---,0.00,VWS V14.00,2013-08-28 06:18:00,
2013-08-28 02:23:00,79.5,68.9,29.76,North,0,1.3,2.0,70,0.00,,---,0.00,VWS V14.00,2013-08-28 06:23:00,
2013-08-28 02:29:00,79.7,69.1,29.76,NNE,22,0.0,0.0,70,0.00,,---,0.00,VWS V14.00,2013-08-28 06:29:00,
2013-08-28 02:34:00,79.7,69.1,29.76,NNW,338,0.0,0.0,70,0.00,,---,0.00,VWS V14.00,2013-08-28 06:34:00,
2013-08-28 02:39:00,79.3,68.7,29.76,NNW,338,0.9,0.9,70,0.00,,---,0.00,VWS V14.00,2013-08-28 06:39:00,
2013-08-28 02:44:00,79.2,68.9,29.76,West,270,1.6,1.6,71,0.00,,---,0.00,VWS V14.00,2013-08-28 06:44:00,
2013-08-28 02:49:00,78.8,69.0,29.76,West,270,0.0,0.0,72,0.00,,---,0.00,VWS V14.00,2013-08-28 06:49:00,
2013-08-28 02:54:00,78.6,69.2,29.76,NNW,338,0.0,0.9,73,0.00,,---,0.00,VWS V14.00,2013-08-28 06:54:00,
2013-08-28 02:59:00,78.4,69.1,29.76,NNE,22,0.0,2.0,73,0.00,,---,0.00,VWS V14.00,2013-08-28 06:59:00,
2013-08-28 03:04:00,78.4,69.1,29.76,WSW,248,0.0,0.9,73,0.00,,---,0.00,VWS V14.00,2013-08-28 07:04:00,
2013-08-28 03:09:00,78.3,68.9,29.76,WNW,292,0.9,0.9,73,0.00,,---,0.00,VWS V14.00,2013-08-28 07:09:00,
2013-08-28 03:14:00,78.4,68.7,29.74,West,270,0.0,0.0,72,0.00,,---,0.00,VWS V14.00,2013-08-28 07:14:00,
2013-08-28 03:19:00,78.3,68.9,29.74,North,0,0.0,0.0,73,0.00,,---,0.00,VWS V14.00,2013-08-28 07:19:00,
2013-08-28 03:24:00,78.1,68.7,29.74,NW,315,2.0,2.0,73,0.00,,---,0.00,VWS V14.00,2013-08-28 07:24:00,
2013-08-28 03:29:00,78.1,68.7,29.76,WSW,248,0.0,0.0,73,0.00,,---,0.00,VWS V14.00,2013-08-28 07:29:00,
2013-08-28 03:35:00,77.9,68.6,29.76,West,270,0.0,0.0,73,0.00,,---,0.00,VWS V14.00,2013-08-28 07:35:00,
2013-08-28 03:40:00,77.9,68.6,29.76,West,270,0.0,0.0,73,0.00,,---,0.00,VWS V14.00,2013-08-28 07:40:00,
2013-08-28 03:45:00,77.7,68.4,29.76,West,270,2.5,2.5,73,0.00,,---,0.00,VWS V14.00,2013-08-28 07:45:00,
2013-08-28 03:50:00,77.7,68.4,29.76,West,270,1.1,1.6,73,0.00,,---,0.00,VWS V14.00,2013-08-28 07:50:00,
2013-08-28 03:55:00,77.7,68.4,29.76,WSW,248,0.0,0.0,73,0.00,,---,0.00,VWS V14.00,2013-08-28 07:55:00,
2013-08-28 04:00:00,77.5,68.6,29.76,West,270,0.9,1.3,74,0.00,,---,0.00,VWS V14.00,2013-08-28 08:00:00,
2013-08-28 04:05:00,77.5,68.6,29.76,SW,225,0.0,1.6,74,0.00,,---,0.00,VWS V14.00,2013-08-28 08:05:00,
2013-08-28 04:10:00,77.4,68.4,29.76,WSW,248,0.0,0.0,74,0.00,,---,0.00,VWS V14.00,2013-08-28 08:10:00,
2013-08-28 04:15:00,77.4,68.4,29.76,NW,315,2.0,2.0,74,0.00,,---,0.00,VWS V14.00,2013-08-28 08:15:00,
2013-08-28 04:20:00,77.2,68.3,29.76,WSW,248,0.0,0.0,74,0.00,,---,0.00,VWS V14.00,2013-08-28 08:20:00,
2013-08-28 04:25:00,77.2,68.3,29.76,WSW,248,0.0,0.0,74,0.00,,---,0.00,VWS V14.00,2013-08-28 08:25:00,
2013-08-28 04:30:00,77.0,68.1,29.76,SW,225,0.0,1.1,74,0.00,,---,0.00,VWS V14.00,2013-08-28 08:30:00,
2013-08-28 04:35:00,76.8,68.3,29.76,SW,225,0.9,1.6,75,0.00,,---,0.00,VWS V14.00,2013-08-28 08:35:00,
2013-08-28 04:40:00,76.8,68.3,29.76,WSW,248,1.6,1.6,75,0.00,,---,0.00,VWS V14.00,2013-08-28 08:40:00,
2013-08-28 04:45:00,76.8,68.3,29.76,WSW,248,0.9,0.9,75,0.00,,---,0.00,VWS V14.00,2013-08-28 08:45:00,
2013-08-28 04:50:00,76.6,68.1,29.76,SW,225,0.0,0.0,75,0.00,,---,0.00,VWS V14.00,2013-08-28 08:50:00,
2013-08-28 04:55:00,76.5,68.3,29.76,WSW,248,0.0,0.0,76,0.00,,---,0.00,VWS V14.00,2013-08-28 08:55:00,
2013-08-28 05:01:00,76.5,68.3,29.76,SW,225,0.0,0.0,76,0.00,,---,0.00,VWS V14.00,2013-08-28 09:01:00,
2013-08-28 05:06:00,76.3,68.2,29.76,SW,225,0.0,1.1,76,0.00,,---,0.00,VWS V14.00,2013-08-28 09:06:00,
2013-08-28 05:11:00,76.3,68.2,29.76,West,270,0.0,0.0,76,0.00,,---,0.00,VWS V14.00,2013-08-28 09:11:00,
2013-08-28 05:16:00,76.1,68.0,29.76,SW,225,0.0,0.0,76,0.00,,---,0.00,VWS V14.00,2013-08-28 09:16:00,
2013-08-28 05:21:00,76.1,68.0,29.76,SW,225,1.1,1.1,76,0.00,,---,0.00,VWS V14.00,2013-08-28 09:21:00,
2013-08-28 05:26:00,75.9,68.2,29.76,West,270,1.3,2.5,77,0.00,,---,0.00,VWS V14.00,2013-08-28 09:26:00,
2013-08-28 05:31:00,75.9,68.2,29.76,West,270,1.1,1.1,77,0.00,,---,0.00,VWS V14.00,2013-08-28 09:31:00,
2013-08-28 05:34:00,75.9,68.2,29.76,SW,225,0.0,0.0,77,0.00,,---,0.00,VWS V14.00,2013-08-28 09:34:00,
2013-08-28 05:39:00,75.7,68.0,29.76,WSW,248,0.0,0.0,77,0.00,,---,0.00,VWS V14.00,2013-08-28 09:39:00,
2013-08-28 05:44:00,75.7,68.0,29.76,SW,225,0.9,0.9,77,0.00,,---,0.00,VWS V14.00,2013-08-28 09:44:00,
2013-08-28 05:49:00,75.7,68.0,29.76,WSW,248,0.0,0.9,77,0.00,,---,0.00,VWS V14.00,2013-08-28 09:49:00,
2013-08-28 05:54:00,75.7,68.0,29.76,West,270,1.6,1.6,77,0.00,,---,0.00,VWS V14.00,2013-08-28 09:54:00,
2013-08-28 05:59:00,75.6,68.2,29.74,West,270,1.6,2.0,78,0.00,,---,0.00,VWS V14.00,2013-08-28 09:59:00,
2013-08-28 06:04:00,75.6,68.2,29.74,West,270,0.0,2.0,78,0.00,,---,0.00,VWS V14.00,2013-08-28 10:04:00,
2013-08-28 06:09:00,75.6,68.2,29.74,ENE,68,1.6,1.6,78,0.00,,---,0.00,VWS V14.00,2013-08-28 10:09:00,
2013-08-28 06:14:00,75.4,68.1,29.76,WNW,292,0.0,0.0,78,0.00,,---,0.00,VWS V14.00,2013-08-28 10:14:00,
2013-08-28 06:19:00,75.4,68.1,29.76,WSW,248,2.7,2.7,78,0.00,,---,0.00,VWS V14.00,2013-08-28 10:19:00,
2013-08-28 06:24:00,75.4,68.4,29.76,West,270,1.1,2.2,79,0.00,,---,0.00,VWS V14.00,2013-08-28 10:24:00,
2013-08-28 06:30:00,75.0,68.1,29.76,SW,225,1.6,1.6,79,0.00,,---,0.00,VWS V14.00,2013-08-28 10:30:00,
2013-08-28 06:35:00,75.0,68.4,29.76,WSW,248,1.3,3.1,80,0.00,,---,0.00,VWS V14.00,2013-08-28 10:35:00,
2013-08-28 06:40:00,74.8,68.3,29.76,SW,225,1.6,2.0,80,0.00,,---,0.00,VWS V14.00,2013-08-28 10:40:00,
2013-08-28 06:45:00,74.7,68.4,29.76,SW,225,1.3,2.0,81,0.00,,---,0.00,VWS V14.00,2013-08-28 10:45:00,
2013-08-28 06:50:00,74.7,68.4,29.76,WSW,248,0.9,1.1,81,0.00,,---,0.00,VWS V14.00,2013-08-28 10:50:00,
2013-08-28 06:55:00,74.5,68.6,29.76,North,0,0.9,2.7,82,0.00,,---,0.00,VWS V14.00,2013-08-28 10:55:00,
2013-08-28 07:00:00,74.3,68.4,29.76,West,270,0.0,1.1,82,0.00,,---,0.00,VWS V14.00,2013-08-28 11:00:00,
2013-08-28 07:05:00,74.3,68.8,29.76,West,270,1.6,1.6,83,0.00,,---,0.00,VWS V14.00,2013-08-28 11:05:00,
2013-08-28 07:10:00,74.1,68.6,29.76,WSW,248,1.3,1.3,83,0.00,,---,0.00,VWS V14.00,2013-08-28 11:10:00,
2013-08-28 07:16:00,74.1,69.0,29.76,West,270,0.0,1.6,84,0.00,,---,0.00,VWS V14.00,2013-08-28 11:16:00,
2013-08-28 07:21:00,73.9,68.8,29.76,West,270,1.3,1.6,84,0.00,,---,0.00,VWS V14.00,2013-08-28 11:21:00,
2013-08-28 07:26:00,73.9,69.2,29.76,WNW,292,0.0,0.0,85,0.00,,---,0.00,VWS V14.00,2013-08-28 11:26:00,
2013-08-28 07:31:00,73.9,69.2,29.79,West,270,1.6,1.6,85,0.00,,---,0.00,VWS V14.00,2013-08-28 11:31:00,
2013-08-28 07:36:00,73.9,69.2,29.79,North,0,0.0,0.9,85,0.00,,---,0.00,VWS V14.00,2013-08-28 11:36:00,
2013-08-28 07:41:00,73.8,69.3,29.79,NNW,338,0.0,0.0,86,0.00,,---,0.00,VWS V14.00,2013-08-28 11:41:00,
2013-08-28 07:46:00,73.8,69.3,29.79,West,270,0.0,1.6,86,0.00,,---,0.00,VWS V14.00,2013-08-28 11:46:00,
2013-08-28 07:51:00,73.6,69.1,29.79,West,270,2.2,2.2,86,0.00,,---,0.00,VWS V14.00,2013-08-28 11:51:00,
2013-08-28 07:56:00,73.6,69.5,29.79,West,270,0.0,1.6,87,0.00,,---,0.00,VWS V14.00,2013-08-28 11:56:00,
2013-08-28 08:01:00,73.8,69.7,29.79,WSW,248,1.3,2.0,87,0.00,,---,0.00,VWS V14.00,2013-08-28 12:01:00,
2013-08-28 08:06:00,73.8,70.0,29.79,West,270,1.6,2.7,88,0.00,,---,0.00,VWS V14.00,2013-08-28 12:06:00,
2013-08-28 08:11:00,73.8,70.0,29.79,West,270,1.1,1.1,88,0.00,,---,0.00,VWS V14.00,2013-08-28 12:11:00,
2013-08-28 08:16:00,73.8,70.0,29.82,WSW,248,0.0,0.0,88,0.00,,---,0.00,VWS V14.00,2013-08-28 12:16:00,
2013-08-28 08:21:00,73.6,70.1,29.82,WSW,248,0.0,0.0,89,0.00,,---,0.00,VWS V14.00,2013-08-28 12:21:00,
2013-08-28 08:26:00,73.6,70.1,29.82,WSW,248,0.0,0.0,89,0.00,,---,0.00,VWS V14.00,2013-08-28 12:26:00,
2013-08-28 08:32:00,73.6,70.1,29.82,WSW,248,0.0,0.0,89,0.00,,---,0.00,VWS V14.00,2013-08-28 12:32:00,
2013-08-28 08:37:00,73.6,70.1,29.82,WSW,248,0.0,0.0,89,0.00,,---,0.00,VWS V14.00,2013-08-28 12:37:00,
2013-08-28 08:42:00,73.6,70.1,29.82,West,270,1.3,1.3,89,0.00,,---,0.00,VWS V14.00,2013-08-28 12:42:00,
2013-08-28 08:47:00,73.6,70.5,29.82,SW,225,0.0,1.1,90,0.00,,---,0.00,VWS V14.00,2013-08-28 12:47:00,
2013-08-28 08:52:00,73.8,70.7,29.82,WSW,248,0.0,0.0,90,0.00,,---,0.00,VWS V14.00,2013-08-28 12:52:00,
2013-08-28 08:57:00,73.8,70.7,29.82,WSW,248,0.0,0.0,90,0.00,,---,0.00,VWS V14.00,2013-08-28 12:57:00,
2013-08-28 09:02:00,73.8,70.7,29.82,WNW,292,0.0,0.0,90,0.00,,---,0.00,VWS V14.00,2013-08-28 13:02:00,
2013-08-28 09:07:00,73.6,70.5,29.82,West,270,0.0,0.0,90,0.00,,---,0.00,VWS V14.00,2013-08-28 13:07:00,
2013-08-28 09:12:00,73.8,71.0,29.82,North,0,0.0,0.0,91,0.00,,---,0.00,VWS V14.00,2013-08-28 13:12:00,
2013-08-28 09:18:00,73.8,71.0,29.82,NNE,22,0.0,2.0,91,0.00,,---,0.00,VWS V14.00,2013-08-28 13:18:00,
2013-08-28 09:23:00,73.8,71.0,29.82,West,270,0.0,0.0,91,0.00,,---,0.00,VWS V14.00,2013-08-28 13:23:00,
2013-08-28 09:28:00,73.9,71.2,29.82,NNW,338,1.6,1.6,91,0.00,,---,0.00,VWS V14.00,2013-08-28 13:28:00,
2013-08-28 09:33:00,73.9,71.2,29.82,NNW,338,0.9,2.0,91,0.00,,---,0.00,VWS V14.00,2013-08-28 13:33:00,
2013-08-28 09:38:00,73.9,71.2,29.82,WSW,248,0.0,0.0,91,0.00,,---,0.00,VWS V14.00,2013-08-28 13:38:00,
2013-08-28 09:43:00,74.1,71.3,29.82,NNW,338,1.6,1.6,91,0.00,,---,0.00,VWS V14.00,2013-08-28 13:43:00,
2013-08-28 09:48:00,74.1,71.3,29.82,WNW,292,0.0,0.0,91,0.00,,---,0.00,VWS V14.00,2013-08-28 13:48:00,
2013-08-28 09:53:00,74.1,71.7,29.82,NNW,338,0.0,0.9,92,0.00,,---,0.00,VWS V14.00,2013-08-28 13:53:00,
2013-08-28 09:58:00,74.1,71.7,29.82,NW,315,0.0,0.0,92,0.00,,---,0.00,VWS V14.00,2013-08-28 13:58:00,
2013-08-28 10:03:00,74.1,71.7,29.82,WSW,248,0.0,0.0,92,0.00,,---,0.00,VWS V14.00,2013-08-28 14:03:00,
2013-08-28 10:08:00,74.3,71.8,29.82,SW,225,0.0,0.0,92,0.00,,---,0.00,VWS V14.00,2013-08-28 14:08:00,
2013-08-28 10:13:00,74.3,71.8,29.82,NNW,338,0.0,1.1,92,0.00,,---,0.00,VWS V14.00,2013-08-28 14:13:00,
2013-08-28 10:18:00,74.7,72.2,29.82,WSW,248,0.0,0.0,92,0.00,,---,0.00,VWS V14.00,2013-08-28 14:18:00,
2013-08-28 10:24:00,75.2,72.4,29.82,NNW,338,0.0,1.3,91,0.00,,---,0.00,VWS V14.00,2013-08-28 14:24:00,
2013-08-28 10:29:00,75.4,72.6,29.82,NW,315,0.0,0.0,91,0.00,,---,0.00,VWS V14.00,2013-08-28 14:29:00,
2013-08-28 10:34:00,75.6,72.4,29.82,NW,315,1.3,1.3,90,0.00,,---,0.00,VWS V14.00,2013-08-28 14:34:00,
2013-08-28 10:39:00,75.4,71.9,29.82,North,0,1.1,2.2,89,0.00,,---,0.00,VWS V14.00,2013-08-28 14:39:00,
2013-08-28 10:44:00,75.4,71.9,29.82,North,0,0.0,1.3,89,0.00,,---,0.00,VWS V14.00,2013-08-28 14:44:00,
2013-08-28 10:49:00,75.6,72.1,29.82,NNW,338,0.0,0.0,89,0.00,,---,0.00,VWS V14.00,2013-08-28 14:49:00,
2013-08-28 10:54:00,75.6,71.8,29.82,SW,225,0.9,0.9,88,0.00,,---,0.00,VWS V14.00,2013-08-28 14:54:00,
2013-08-28 10:59:00,75.7,71.9,29.85,North,0,0.0,0.0,88,0.00,,---,0.00,VWS V14.00,2013-08-28 14:59:00,
2013-08-28 11:04:00,76.1,72.3,29.85,SSW,202,0.0,0.0,88,0.00,,---,0.00,VWS V14.00,2013-08-28 15:04:00,
2013-08-28 11:10:00,76.3,72.5,29.85,East,90,0.0,0.0,88,0.00,,---,0.00,VWS V14.00,2013-08-28 15:10:00,
2013-08-28 11:15:00,76.3,72.1,29.85,SSW,202,0.0,0.0,87,0.00,,---,0.00,VWS V14.00,2013-08-28 15:15:00,
2013-08-28 11:20:00,76.5,72.3,29.85,North,0,1.6,1.6,87,0.00,,---,0.00,VWS V14.00,2013-08-28 15:20:00,
2013-08-28 11:25:00,76.5,72.0,29.85,NNW,338,2.5,2.5,86,0.00,,---,0.00,VWS V14.00,2013-08-28 15:25:00,
2013-08-28 11:30:00,76.5,72.0,29.85,West,270,0.0,1.3,86,0.00,,---,0.00,VWS V14.00,2013-08-28 15:30:00,
2013-08-28 11:35:00,76.8,72.3,29.85,North,0,0.0,0.0,86,0.00,,---,0.00,VWS V14.00,2013-08-28 15:35:00,
2013-08-28 11:40:00,77.0,72.5,29.85,North,0,0.0,0.0,86,0.00,,---,0.00,VWS V14.00,2013-08-28 15:40:00,
2013-08-28 11:45:00,77.0,72.2,29.85,North,0,1.3,1.3,85,0.00,,---,0.00,VWS V14.00,2013-08-28 15:45:00,
2013-08-28 11:51:00,77.0,71.8,29.85,North,0,0.0,0.0,84,0.00,,---,0.00,VWS V14.00,2013-08-28 15:51:00,
2013-08-28 11:56:00,77.0,71.8,29.85,NW,315,0.0,1.1,84,0.00,,---,0.00,VWS V14.00,2013-08-28 15:56:00,
2013-08-28 12:01:00,77.4,72.2,29.85,SW,225,0.9,1.3,84,0.00,,---,0.00,VWS V14.00,2013-08-28 16:01:00,
2013-08-28 12:06:00,77.7,72.5,29.85,SSE,158,0.9,1.3,84,0.00,,---,0.00,VWS V14.00,2013-08-28 16:06:00,
2013-08-28 12:11:00,77.7,72.5,29.85,SE,135,2.0,2.7,84,0.00,,---,0.00,VWS V14.00,2013-08-28 16:11:00,
2013-08-28 12:16:00,77.7,72.2,29.85,North,0,1.6,2.5,83,0.00,,---,0.00,VWS V14.00,2013-08-28 16:16:00,
2013-08-28 12:21:00,77.5,71.6,29.85,SSE,158,1.6,1.6,82,0.00,,---,0.00,VWS V14.00,2013-08-28 16:21:00,
2013-08-28 12:26:00,77.7,71.8,29.85,ENE,68,0.9,1.6,82,0.00,,---,0.00,VWS V14.00,2013-08-28 16:26:00,
2013-08-28 12:31:00,78.1,72.1,29.85,North,0,0.0,0.0,82,0.00,,---,0.00,VWS V14.00,2013-08-28 16:31:00,
2013-08-28 12:36:00,78.4,72.1,29.85,NE,45,0.0,0.0,81,0.00,,---,0.00,VWS V14.00,2013-08-28 16:36:00,
2013-08-28 12:41:00,79.2,72.8,29.85,East,90,1.6,1.6,81,0.00,,---,0.00,VWS V14.00,2013-08-28 16:41:00,
2013-08-28 12:46:00,78.8,71.7,29.85,North,0,1.6,2.0,79,0.00,,---,0.00,VWS V14.00,2013-08-28 16:46:00,
2013-08-28 12:51:00,78.4,71.8,29.85,ENE,68,1.3,1.3,80,0.00,,---,0.00,VWS V14.00,2013-08-28 16:51:00,
2013-08-28 12:56:00,78.3,71.6,29.85,NE,45,1.6,1.6,80,0.00,,---,0.00,VWS V14.00,2013-08-28 16:56:00,
2013-08-28 13:01:00,78.3,71.6,29.85,NE,45,0.0,0.0,80,0.00,,---,0.00,VWS V14.00,2013-08-28 17:01:00,
2013-08-28 13:06:00,78.1,71.4,29.85,North,0,2.0,3.4,80,0.00,,---,0.00,VWS V14.00,2013-08-28 17:06:00,
2013-08-28 13:12:00,77.5,70.9,29.85,North,0,0.0,1.6,80,0.00,,---,0.00,VWS V14.00,2013-08-28 17:12:00,
2013-08-28 13:17:00,77.4,71.1,29.85,NNW,338,0.0,0.0,81,0.00,,---,0.00,VWS V14.00,2013-08-28 17:17:00,
2013-08-28 13:22:00,77.2,70.9,29.85,NNW,338,0.9,2.0,81,0.00,,---,0.00,VWS V14.00,2013-08-28 17:22:00,
2013-08-28 13:27:00,77.4,71.4,29.85,WSW,248,1.6,1.6,82,0.00,,---,0.00,VWS V14.00,2013-08-28 17:27:00,
2013-08-28 13:32:00,77.2,71.3,29.88,North,0,2.5,2.9,82,0.00,,---,0.00,VWS V14.00,2013-08-28 17:32:00,
2013-08-28 13:37:00,77.0,71.1,29.88,SW,225,0.0,0.9,82,0.00,,---,0.00,VWS V14.00,2013-08-28 17:37:00,
2013-08-28 13:42:00,77.0,71.1,29.88,NW,315,1.6,1.6,82,0.00,,---,0.00,VWS V14.00,2013-08-28 17:42:00,
2013-08-28 13:47:00,77.2,71.6,29.88,NW,315,1.6,1.6,83,0.00,,---,0.00,VWS V14.00,2013-08-28 17:47:00,
2013-08-28 13:52:00,77.2,71.3,29.88,North,0,2.7,2.7,82,0.00,,---,0.00,VWS V14.00,2013-08-28 17:52:00,
2013-08-28 13:57:00,77.0,71.1,29.88,SW,225,0.9,0.9,82,0.00,,---,0.00,VWS V14.00,2013-08-28 17:57:00,
2013-08-28 14:02:00,77.2,71.3,29.88,NNE,22,0.0,0.0,82,0.00,,---,0.00,VWS V14.00,2013-08-28 18:02:00,
2013-08-28 14:07:00,76.8,70.9,29.88,NE,45,0.0,0.0,82,0.00,,---,0.00,VWS V14.00,2013-08-28 18:07:00,
2013-08-28 14:13:00,76.8,70.9,29.88,NNE,22,0.0,0.0,82,0.00,,---,0.00,VWS V14.00,2013-08-28 18:13:00,
2013-08-28 14:18:00,77.4,71.8,29.88,NNE,22,2.5,2.5,83,0.00,,---,0.00,VWS V14.00,2013-08-28 18:18:00,
2013-08-28 14:23:00,77.5,71.6,29.88,SW,225,0.0,0.0,82,0.00,,---,0.00,VWS V14.00,2013-08-28 18:23:00,
2013-08-28 14:28:00,77.7,71.8,29.88,SW,225,0.0,0.0,82,0.00,,---,0.00,VWS V14.00,2013-08-28 18:28:00,
2013-08-28 14:33:00,77.4,71.4,29.88,NNE,22,1.3,1.3,82,0.00,,---,0.00,VWS V14.00,2013-08-28 18:33:00,
2013-08-28 14:38:00,77.0,71.1,29.88,North,0,0.0,0.0,82,0.00,,---,0.00,VWS V14.00,2013-08-28 18:38:00,
2013-08-28 14:43:00,77.4,71.4,29.88,NNW,338,1.6,2.2,82,0.00,,---,0.00,VWS V14.00,2013-08-28 18:43:00,
2013-08-28 14:48:00,77.4,71.4,29.88,North,0,0.0,1.3,82,0.00,,---,0.00,VWS V14.00,2013-08-28 18:48:00,
2013-08-28 14:53:00,77.5,71.6,29.88,WSW,248,0.0,0.0,82,0.00,,---,0.00,VWS V14.00,2013-08-28 18:53:00,
2013-08-28 14:58:00,77.7,71.8,29.88,WSW,248,0.0,0.0,82,0.00,,---,0.00,VWS V14.00,2013-08-28 18:58:00,
2013-08-28 15:03:00,77.7,71.4,29.88,NNW,338,0.0,1.1,81,0.00,,---,0.00,VWS V14.00,2013-08-28 19:03:00,
2013-08-28 15:09:00,77.7,71.1,29.88,South,180,0.9,1.3,80,0.00,,---,0.00,VWS V14.00,2013-08-28 19:09:00,
2013-08-28 15:14:00,77.9,70.9,29.88,WSW,248,0.0,1.3,79,0.00,,---,0.00,VWS V14.00,2013-08-28 19:14:00,
2013-08-28 15:19:00,78.4,71.8,29.88,NW,315,0.0,0.0,80,0.00,,---,0.00,VWS V14.00,2013-08-28 19:19:00,
2013-08-28 15:24:00,78.8,71.7,29.88,NW,315,0.0,0.9,79,0.00,,---,0.00,VWS V14.00,2013-08-28 19:24:00,
2013-08-28 15:29:00,79.0,71.5,29.88,South,180,0.0,0.9,78,0.00,,---,0.00,VWS V14.00,2013-08-28 19:29:00,
2013-08-28 15:34:00,79.0,71.5,29.88,WSW,248,0.9,1.3,78,0.00,,---,0.00,VWS V14.00,2013-08-28 19:34:00,
2013-08-28 15:39:00,79.2,71.7,29.88,WSW,248,1.1,1.1,78,0.00,,---,0.00,VWS V14.00,2013-08-28 19:39:00,
2013-08-28 15:44:00,79.2,71.7,29.88,SW,225,0.0,0.0,78,0.00,,---,0.00,VWS V14.00,2013-08-28 19:44:00,
2013-08-28 15:49:00,79.0,71.2,29.88,East,90,1.3,1.3,77,0.00,,---,0.00,VWS V14.00,2013-08-28 19:49:00,
2013-08-28 15:55:00,78.3,70.5,29.88,East,90,0.0,0.0,77,0.00,,---,0.00,VWS V14.00,2013-08-28 19:55:00,
2013-08-28 16:00:00,78.1,70.7,29.85,North,0,0.0,1.3,78,0.00,,---,0.00,VWS V14.00,2013-08-28 20:00:00,
2013-08-28 16:05:00,78.1,70.7,29.85,ENE,68,0.0,0.0,78,0.00,,---,0.00,VWS V14.00,2013-08-28 20:05:00,
2013-08-28 16:10:00,78.3,70.8,29.85,NNW,338,2.0,2.0,78,0.00,,---,0.00,VWS V14.00,2013-08-28 20:10:00,
2013-08-28 16:15:00,78.6,71.2,29.88,North,0,2.0,2.7,78,0.00,,---,0.00,VWS V14.00,2013-08-28 20:15:00,
2013-08-28 16:20:00,78.4,71.0,29.88,North,0,0.0,0.0,78,0.00,,---,0.00,VWS V14.00,2013-08-28 20:20:00,
2013-08-28 16:25:00,78.3,70.8,29.88,North,0,1.3,1.6,78,0.00,,---,0.00,VWS V14.00,2013-08-28 20:25:00,
2013-08-28 16:30:00,77.9,70.5,29.85,North,0,0.0,0.0,78,0.00,,---,0.00,VWS V14.00,2013-08-28 20:30:00,
2013-08-28 16:35:00,77.5,70.5,29.85,North,0,0.9,0.9,79,0.00,,---,0.00,VWS V14.00,2013-08-28 20:35:00,
2013-08-28 16:40:00,77.7,70.7,29.85,North,0,0.0,0.0,79,0.00,,---,0.00,VWS V14.00,2013-08-28 20:40:00,
2013-08-28 16:45:00,77.9,70.9,29.85,NW,315,2.5,2.5,79,0.00,,---,0.00,VWS V14.00,2013-08-28 20:45:00,
2013-08-28 16:50:00,77.9,70.5,29.85,NNW,338,0.0,1.1,78,0.00,,---,0.00,VWS V14.00,2013-08-28 20:50:00,
2013-08-28 16:56:00,78.3,71.2,29.85,SSE,158,0.9,0.9,79,0.00,,---,0.00,VWS V14.00,2013-08-28 20:56:00,
2013-08-28 17:01:00,78.6,71.2,29.88,NW,315,1.1,1.6,78,0.00,,---,0.00,VWS V14.00,2013-08-28 21:01:00,
2013-08-28 17:06:00,78.6,71.2,29.88,North,0,2.9,2.9,78,0.00,,---,0.00,VWS V14.00,2013-08-28 21:06:00,
2013-08-28 17:11:00,78.6,71.2,29.88,South,180,0.0,0.0,78,0.00,,---,0.00,VWS V14.00,2013-08-28 21:11:00,
2013-08-28 17:16:00,78.6,71.2,29.88,East,90,0.0,0.9,78,0.00,,---,0.00,VWS V14.00,2013-08-28 21:16:00,
2013-08-28 17:21:00,78.4,70.6,29.88,North,0,0.9,1.6,77,0.00,,---,0.00,VWS V14.00,2013-08-28 21:21:00,
2013-08-28 17:26:00,78.4,71.0,29.88,NNW,338,0.0,0.0,78,0.00,,---,0.00,VWS V14.00,2013-08-28 21:26:00,
2013-08-28 17:31:00,78.3,70.5,29.88,North,0,1.1,1.6,77,0.00,,---,0.00,VWS V14.00,2013-08-28 21:31:00,
2013-08-28 17:36:00,78.4,70.6,29.88,WNW,292,0.0,0.0,77,0.00,,---,0.00,VWS V14.00,2013-08-28 21:36:00,
2013-08-28 17:41:00,78.3,70.5,29.88,WNW,292,0.0,0.0,77,0.00,,---,0.00,VWS V14.00,2013-08-28 21:41:00,
2013-08-28 17:46:00,78.1,70.3,29.88,WSW,248,0.0,0.0,77,0.00,,---,0.00,VWS V14.00,2013-08-28 21:46:00,
2013-08-28 17:51:00,78.1,70.3,29.88,NNW,338,1.1,1.3,77,0.00,,---,0.00,VWS V14.00,2013-08-28 21:51:00,
2013-08-28 17:57:00,78.1,70.3,29.88,NNW,338,0.0,0.0,77,0.00,,---,0.00,VWS V14.00,2013-08-28 21:57:00,
2013-08-28 18:02:00,77.9,70.1,29.88,East,90,1.1,1.6,77,0.00,,---,0.00,VWS V14.00,2013-08-28 22:02:00,
2013-08-28 18:07:00,77.9,70.1,29.88,East,90,0.0,0.0,77,0.00,,---,0.00,VWS V14.00,2013-08-28 22:07:00,
2013-08-28 18:12:00,77.9,70.5,29.88,North,0,0.0,0.0,78,0.00,,---,0.00,VWS V14.00,2013-08-28 22:12:00,
2013-08-28 18:17:00,77.9,70.5,29.88,North,0,0.9,0.9,78,0.00,,---,0.00,VWS V14.00,2013-08-28 22:17:00,
2013-08-28 18:22:00,77.9,70.5,29.88,North,0,0.0,0.0,78,0.00,,---,0.00,VWS V14.00,2013-08-28 22:22:00,
2013-08-28 18:27:00,77.9,70.5,29.88,North,0,0.0,1.1,78,0.00,,---,0.00,VWS V14.00,2013-08-28 22:27:00,
2013-08-28 18:32:00,77.9,70.5,29.88,North,0,0.0,0.0,78,0.00,,---,0.00,VWS V14.00,2013-08-28 22:32:00,
2013-08-28 18:37:00,77.9,70.5,29.88,North,0,0.9,1.1,78,0.00,,---,0.00,VWS V14.00,2013-08-28 22:37:00,
2013-08-28 18:42:00,78.1,70.7,29.88,North,0,2.0,2.0,78,0.00,,---,0.00,VWS V14.00,2013-08-28 22:42:00,
2013-08-28 18:47:00,78.1,70.7,29.91,North,0,0.0,0.0,78,0.00,,---,0.00,VWS V14.00,2013-08-28 22:47:00,
2013-08-28 18:52:00,77.7,70.3,29.91,North,0,0.0,0.0,78,0.00,,---,0.00,VWS V14.00,2013-08-28 22:52:00,
2013-08-28 18:58:00,77.5,70.1,29.91,NNW,338,0.0,0.0,78,0.00,,---,0.00,VWS V14.00,2013-08-28 22:58:00,
2013-08-28 19:03:00,77.4,70.0,29.91,NNW,338,0.0,0.0,78,0.00,,---,0.00,VWS V14.00,2013-08-28 23:03:00,
2013-08-28 19:08:00,77.4,70.0,29.91,NNW,338,0.0,0.0,78,0.00,,---,0.00,VWS V14.00,2013-08-28 23:08:00,
2013-08-28 19:13:00,77.2,70.2,29.94,NNW,338,1.1,2.7,79,0.00,,---,0.00,VWS V14.00,2013-08-28 23:13:00,
2013-08-28 19:18:00,77.2,70.2,29.94,NNW,338,0.0,0.0,79,0.00,,---,0.00,VWS V14.00,2013-08-28 23:18:00,
2013-08-28 19:23:00,77.2,70.2,29.94,NNW,338,0.0,0.0,79,0.00,,---,0.00,VWS V14.00,2013-08-28 23:23:00,
2013-08-28 19:28:00,77.0,70.0,29.94,NNW,338,0.0,0.0,79,0.00,,---,0.00,VWS V14.00,2013-08-28 23:28:00,
2013-08-28 19:33:00,77.0,70.4,29.94,NNW,338,0.0,0.0,80,0.00,,---,0.00,VWS V14.00,2013-08-28 23:33:00,
2013-08-28 19:38:00,76.8,70.2,29.94,NNW,338,0.0,0.0,80,0.00,,---,0.00,VWS V14.00,2013-08-28 23:38:00,
2013-08-28 19:43:00,76.6,70.0,29.94,NNW,338,0.0,0.0,80,0.00,,---,0.00,VWS V14.00,2013-08-28 23:43:00,
2013-08-28 19:48:00,76.5,70.2,29.94,NNW,338,0.0,0.0,81,0.00,,---,0.00,VWS V14.00,2013-08-28 23:48:00,
2013-08-28 19:54:00,76.3,70.4,29.94,NNW,338,0.0,0.0,82,0.00,,---,0.00,VWS V14.00,2013-08-28 23:54:00,
2013-08-28 19:59:00,75.9,70.0,29.91,NNW,338,0.0,0.0,82,0.00,,---,0.00,VWS V14.00,2013-08-28 23:59:00,
2013-08-28 20:04:00,75.7,70.2,29.91,NNW,338,0.0,0.0,83,0.00,,---,0.00,VWS V14.00,2013-08-29 00:04:00,
2013-08-28 20:09:00,75.6,70.0,29.91,NNW,338,0.0,0.0,83,0.00,,---,0.00,VWS V14.00,2013-08-29 00:09:00,
2013-08-28 20:14:00,75.4,70.2,29.94,NNW,338,0.0,0.0,84,0.00,,---,0.00,VWS V14.00,2013-08-29 00:14:00,
2013-08-28 20:19:00,75.0,70.2,29.94,NNW,338,0.0,0.0,85,0.00,,---,0.00,VWS V14.00,2013-08-29 00:19:00,
2013-08-28 20:24:00,74.8,70.0,29.94,NNW,338,0.0,0.0,85,0.00,,---,0.00,VWS V14.00,2013-08-29 00:24:00,
2013-08-28 20:29:00,74.7,70.2,29.94,NNW,338,0.0,0.0,86,0.00,,---,0.00,VWS V14.00,2013-08-29 00:29:00,
2013-08-28 20:34:00,74.3,69.8,29.94,NNW,338,0.0,0.0,86,0.00,,---,0.00,VWS V14.00,2013-08-29 00:34:00,
2013-08-28 20:39:00,74.1,69.7,29.94,NNW,338,0.0,0.0,86,0.00,,---,0.00,VWS V14.00,2013-08-29 00:39:00,
2013-08-28 20:44:00,73.9,69.8,29.97,NNW,338,0.0,0.0,87,0.00,,---,0.00,VWS V14.00,2013-08-29 00:44:00,
2013-08-28 20:49:00,73.8,69.7,29.97,NNW,338,0.0,0.0,87,0.00,,---,0.00,VWS V14.00,2013-08-29 00:49:00,
2013-08-28 20:54:00,73.6,69.5,29.97,NNW,338,0.0,0.0,87,0.00,,---,0.00,VWS V14.00,2013-08-29 00:54:00,
2013-08-28 20:59:00,73.4,69.6,29.97,NNW,338,0.0,0.0,88,0.00,,---,0.00,VWS V14.00,2013-08-29 00:59:00,
2013-08-28 21:04:00,73.2,69.5,29.97,NNW,338,0.0,0.0,88,0.00,,---,0.00,VWS V14.00,2013-08-29 01:04:00,
2013-08-28 21:09:00,73.0,69.3,29.97,NNW,338,0.0,0.0,88,0.00,,---,0.00,VWS V14.00,2013-08-29 01:09:00,
2013-08-28 21:15:00,72.9,69.4,29.97,NNW,338,0.0,0.0,89,0.00,,---,0.00,VWS V14.00,2013-08-29 01:15:00,
2013-08-28 21:20:00,72.7,69.3,29.97,NNW,338,0.0,0.0,89,0.00,,---,0.00,VWS V14.00,2013-08-29 01:20:00,
2013-08-28 21:25:00,72.7,69.3,29.97,NNW,338,0.0,0.0,89,0.00,,---,0.00,VWS V14.00,2013-08-29 01:25:00,
2013-08-28 21:30:00,72.5,69.1,30.00,NNW,338,0.0,0.0,89,0.00,,---,0.00,VWS V14.00,2013-08-29 01:30:00,
2013-08-28 21:35:00,72.3,69.2,30.00,NNW,338,0.0,0.0,90,0.00,,---,0.00,VWS V14.00,2013-08-29 01:35:00,
2013-08-28 21:40:00,72.3,69.2,30.00,NNW,338,0.0,0.0,90,0.00,,---,0.00,VWS V14.00,2013-08-29 01:40:00,
2013-08-28 21:45:00,72.1,69.1,29.97,NNW,338,0.0,0.0,90,0.00,,---,0.00,VWS V14.00,2013-08-29 01:45:00,
2013-08-28 21:50:00,72.0,68.9,29.97,NNW,338,0.0,0.0,90,0.00,,---,0.00,VWS V14.00,2013-08-29 01:50:00,
2013-08-28 21:55:00,72.0,68.9,29.97,NNW,338,0.0,0.0,90,0.00,,---,0.00,VWS V14.00,2013-08-29 01:55:00,
2013-08-28 22:00:00,71.8,68.7,30.00,NNW,338,0.0,0.0,90,0.00,,---,0.00,VWS V14.00,2013-08-29 02:00:00,
2013-08-28 22:05:00,71.8,68.7,30.00,NNW,338,0.0,0.0,90,0.00,,---,0.00,VWS V14.00,2013-08-29 02:05:00,
2013-08-28 22:10:00,71.6,68.5,30.00,NNW,338,0.0,0.0,90,0.00,,---,0.00,VWS V14.00,2013-08-29 02:10:00,
2013-08-28 22:16:00,71.6,68.8,30.00,NNW,338,0.0,0.0,91,0.00,,---,0.00,VWS V14.00,2013-08-29 02:16:00,
2013-08-28 22:21:00,71.4,68.7,30.00,NNW,338,0.0,0.0,91,0.00,,---,0.00,VWS V14.00,2013-08-29 02:21:00,
2013-08-28 22:26:00,71.4,68.7,30.00,NNW,338,0.0,0.0,91,0.00,,---,0.00,VWS V14.00,2013-08-29 02:26:00,
2013-08-28 22:31:00,71.2,68.5,30.00,NNW,338,0.0,0.0,91,0.00,,---,0.00,VWS V14.00,2013-08-29 02:31:00,
2013-08-28 22:36:00,71.2,68.5,30.00,NNW,338,0.0,0.0,91,0.00,,---,0.00,VWS V14.00,2013-08-29 02:36:00,
2013-08-28 22:41:00,71.1,68.3,30.00,NNW,338,0.0,0.0,91,0.00,,---,0.00,VWS V14.00,2013-08-29 02:41:00,
2013-08-28 22:46:00,71.1,68.3,30.00,NNW,338,0.0,0.0,91,0.00,,---,0.00,VWS V14.00,2013-08-29 02:46:00,
2013-08-28 22:51:00,71.1,68.6,30.00,NNW,338,0.0,0.0,92,0.00,,---,0.00,VWS V14.00,2013-08-29 02:51:00,
2013-08-28 22:56:00,70.9,68.4,30.00,NNW,338,0.0,0.0,92,0.00,,---,0.00,VWS V14.00,2013-08-29 02:56:00,
2013-08-28 23:01:00,70.9,68.4,30.00,NNW,338,0.0,0.0,92,0.00,,---,0.00,VWS V14.00,2013-08-29 03:01:00,
2013-08-28 23:06:00,70.9,68.4,30.00,NNW,338,0.0,0.0,92,0.00,,---,0.00,VWS V14.00,2013-08-29 03:06:00,
2013-08-28 23:11:00,70.7,68.3,30.00,NNW,338,0.0,0.0,92,0.00,,---,0.00,VWS V14.00,2013-08-29 03:11:00,
2013-08-28 23:16:00,70.7,68.3,30.00,NNW,338,0.0,0.0,92,0.00,,---,0.00,VWS V14.00,2013-08-29 03:16:00,
2013-08-28 23:21:00,70.5,68.1,30.00,NNW,338,0.0,0.0,92,0.00,,---,0.00,VWS V14.00,2013-08-29 03:21:00,
2013-08-28 23:27:00,70.5,68.1,30.00,NNW,338,0.0,0.0,92,0.00,,---,0.00,VWS V14.00,2013-08-29 03:27:00,
2013-08-28 23:32:00,70.5,68.1,30.00,NNW,338,0.0,0.0,92,0.00,,---,0.00,VWS V14.00,2013-08-29 03:32:00,
2013-08-28 23:37:00,70.3,67.9,30.00,NNW,338,0.0,0.0,92,0.00,,---,0.00,VWS V14.00,2013-08-29 03:37:00,
2013-08-28 23:42:00,70.3,67.9,30.00,NNW,338,0.0,0.0,92,0.00,,---,0.00,VWS V14.00,2013-08-29 03:42:00,
2013-08-28 23:47:00,70.3,67.9,30.00,NNW,338,0.0,0.0,92,0.00,,---,0.00,VWS V14.00,2013-08-29 03:47:00,
2013-08-28 23:52:00,70.3,68.2,30.00,NNW,338,0.0,0.0,93,0.00,,---,0.00,VWS V14.00,2013-08-29 03:52:00,
2013-08-28 23:57:00,70.2,68.1,30.00,NNW,338,0.0,0.0,93,0.00,,---,0.00,VWS V14.00,2013-08-29 03:57:00,